OAS030 SKRG-KMIA
Flight info
| Callsign | OAS030 |
|---|---|
| Flight time | N/A |
| Altitude | 36000 |
| Route | BUTAL3A BUTAL UP778 CTG UM779 ZEUSS VIICE2 |
| Aircraft | B738/M-SDE2E3FGHIJ1RWXYZ/LB2 |
Departure
| Time | 2026-05-05 17:17 |
|---|---|
| Airport | Jose Maria Córdova International Airport (SKRG) |
Arrival
| Time | N/A |
|---|---|
| Airport | Miami International Airport (KMIA) |
| Time | Latitude | Longitude | Altitude | Speed | Heading |
|---|---|---|---|---|---|
| 2026-05-05 16:37 | 6.17300 | -75.42767 | 6991 ft | 0 kts | 212° |
| 2026-05-05 17:05 | 6.17306 | -75.42763 | 6991 ft | 2 kts | 212° |
| 2026-05-05 17:05 | 6.17319 | -75.42755 | 6991 ft | 2 kts | 212° |
| 2026-05-05 17:06 | 6.17329 | -75.42748 | 6991 ft | 2 kts | 212° |
| 2026-05-05 17:06 | 6.17342 | -75.42741 | 6991 ft | 0 kts | 212° |
| 2026-05-05 17:06 | 6.17354 | -75.42736 | 6991 ft | 2 kts | 173° |
| 2026-05-05 17:06 | 6.17367 | -75.42742 | 6991 ft | 1 kts | 127° |
| 2026-05-05 17:07 | 6.17368 | -75.42744 | 6991 ft | 1 kts | 121° |
| 2026-05-05 17:07 | 6.17354 | -75.42723 | 6991 ft | 3 kts | 125° |
| 2026-05-05 17:07 | 6.17351 | -75.42719 | 6991 ft | 0 kts | 125° |
| 2026-05-05 17:09 | 6.17340 | -75.42705 | 6991 ft | 6 kts | 125° |
| 2026-05-05 17:10 | 6.17310 | -75.42663 | 6991 ft | 5 kts | 126° |
| 2026-05-05 17:10 | 6.17285 | -75.42632 | 6990 ft | 8 kts | 139° |
| 2026-05-05 17:10 | 6.17215 | -75.42619 | 6989 ft | 10 kts | 179° |
| 2026-05-05 17:10 | 6.17140 | -75.42616 | 6988 ft | 12 kts | 174° |
| 2026-05-05 17:11 | 6.17059 | -75.42600 | 6987 ft | 11 kts | 155° |
| 2026-05-05 17:11 | 6.16982 | -75.42556 | 6985 ft | 13 kts | 149° |
| 2026-05-05 17:11 | 6.16903 | -75.42509 | 6983 ft | 13 kts | 149° |
| 2026-05-05 17:11 | 6.16818 | -75.42484 | 6981 ft | 12 kts | 178° |
| 2026-05-05 17:12 | 6.16730 | -75.42483 | 6979 ft | 12 kts | 179° |
| 2026-05-05 17:12 | 6.16637 | -75.42481 | 6976 ft | 14 kts | 178° |
| 2026-05-05 17:12 | 6.16521 | -75.42481 | 6974 ft | 18 kts | 179° |
| 2026-05-05 17:12 | 6.16380 | -75.42480 | 6970 ft | 20 kts | 179° |
| 2026-05-05 17:13 | 6.16238 | -75.42478 | 6967 ft | 20 kts | 180° |
| 2026-05-05 17:13 | 6.16100 | -75.42477 | 6964 ft | 19 kts | 177° |
| 2026-05-05 17:13 | 6.15965 | -75.42475 | 6962 ft | 18 kts | 180° |
| 2026-05-05 17:13 | 6.15835 | -75.42474 | 6960 ft | 17 kts | 179° |
| 2026-05-05 17:14 | 6.15722 | -75.42474 | 6959 ft | 16 kts | 181° |
| 2026-05-05 17:14 | 6.15599 | -75.42475 | 6958 ft | 17 kts | 179° |
| 2026-05-05 17:14 | 6.15482 | -75.42474 | 6958 ft | 16 kts | 180° |
| 2026-05-05 17:14 | 6.15377 | -75.42474 | 6957 ft | 14 kts | 179° |
| 2026-05-05 17:15 | 6.15273 | -75.42473 | 6957 ft | 16 kts | 180° |
| 2026-05-05 17:15 | 6.15135 | -75.42472 | 6956 ft | 20 kts | 180° |
| 2026-05-05 17:15 | 6.15000 | -75.42473 | 6956 ft | 18 kts | 181° |
| 2026-05-05 17:15 | 6.14901 | -75.42461 | 6956 ft | 11 kts | 138° |
| 2026-05-05 17:16 | 6.14890 | -75.42388 | 6956 ft | 10 kts | 79° |
| 2026-05-05 17:16 | 6.14910 | -75.42323 | 6956 ft | 9 kts | 65° |
| 2026-05-05 17:16 | 6.14994 | -75.42303 | 6956 ft | 25 kts | 360° |
| 2026-05-05 17:16 | 6.15413 | -75.42306 | 6958 ft | 93 kts | 360° |
| 2026-05-05 17:17 | 6.16275 | -75.42313 | 6967 ft | 152 kts | 0° |
| 2026-05-05 17:17 | 6.17521 | -75.42323 | 7022 ft | 198 kts | 359° |
| 2026-05-05 17:17 | 6.18709 | -75.42321 | 7649 ft | 196 kts | 1° |
| 2026-05-05 17:17 | 6.20017 | -75.42332 | 8333 ft | 200 kts | 1° |
| 2026-05-05 17:18 | 6.21440 | -75.42348 | 8899 ft | 209 kts | 1° |
| 2026-05-05 17:18 | 6.22949 | -75.42365 | 9375 ft | 223 kts | 2° |
| 2026-05-05 17:18 | 6.24526 | -75.42373 | 9868 ft | 235 kts | 2° |
| 2026-05-05 17:18 | 6.26229 | -75.42379 | 10356 ft | 248 kts | 2° |
| 2026-05-05 17:19 | 6.28001 | -75.42394 | 10822 ft | 263 kts | 1° |
| 2026-05-05 17:19 | 6.29855 | -75.42410 | 11580 ft | 264 kts | 2° |
| 2026-05-05 17:19 | 6.31672 | -75.42423 | 12370 ft | 262 kts | 2° |
| 2026-05-05 17:19 | 6.32971 | -75.42432 | 12856 ft | 264 kts | 3° |
| 2026-05-05 17:20 | 6.34828 | -75.42429 | 13418 ft | 271 kts | 4° |
| 2026-05-05 17:20 | 6.36409 | -75.42406 | 13898 ft | 277 kts | 4° |
| 2026-05-05 17:20 | 6.38211 | -75.42378 | 14244 ft | 291 kts | 4° |
| 2026-05-05 17:20 | 6.40741 | -75.42345 | 14825 ft | 305 kts | 3° |
| 2026-05-05 17:21 | 6.42568 | -75.42324 | 15126 ft | 320 kts | 3° |
| 2026-05-05 17:21 | 6.45058 | -75.42324 | 15674 ft | 333 kts | 1° |
| 2026-05-05 17:21 | 6.47582 | -75.42387 | 16463 ft | 335 kts | 1° |
| 2026-05-05 17:22 | 6.52283 | -75.42534 | 17890 ft | 338 kts | 0° |
| 2026-05-05 17:22 | 6.54656 | -75.42600 | 18512 ft | 342 kts | 0° |
| 2026-05-05 17:22 | 6.57060 | -75.42662 | 19096 ft | 346 kts | 0° |
| 2026-05-05 17:22 | 6.59512 | -75.42722 | 19699 ft | 350 kts | 0° |
| 2026-05-05 17:23 | 6.61024 | -75.42760 | 20063 ft | 352 kts | 0° |
| 2026-05-05 17:23 | 6.64529 | -75.42845 | 20891 ft | 356 kts | 0° |
| 2026-05-05 17:23 | 6.66465 | -75.42892 | 21306 ft | 359 kts | 0° |
| 2026-05-05 17:24 | 6.68614 | -75.42944 | 21758 ft | 362 kts | 360° |
| 2026-05-05 17:24 | 6.72310 | -75.43033 | 22591 ft | 365 kts | 360° |
| 2026-05-05 17:24 | 6.75030 | -75.43097 | 23144 ft | 368 kts | 360° |
| 2026-05-05 17:24 | 6.78633 | -75.43181 | 23847 ft | 372 kts | 360° |
| 2026-05-05 17:25 | 6.81971 | -75.43259 | 24513 ft | 376 kts | 359° |
| 2026-05-05 17:25 | 6.83724 | -75.43300 | 24847 ft | 377 kts | 359° |
| 2026-05-05 17:25 | 6.87272 | -75.43385 | 25487 ft | 381 kts | 359° |
| 2026-05-05 17:25 | 6.89962 | -75.43452 | 26005 ft | 383 kts | 359° |
| 2026-05-05 17:26 | 6.92644 | -75.43518 | 26456 ft | 385 kts | 359° |
| 2026-05-05 17:26 | 6.95374 | -75.43584 | 26916 ft | 388 kts | 359° |
| 2026-05-05 17:26 | 6.98071 | -75.43649 | 27325 ft | 391 kts | 359° |
| 2026-05-05 17:26 | 7.00816 | -75.43715 | 27753 ft | 393 kts | 359° |
| 2026-05-05 17:27 | 7.03573 | -75.43781 | 28204 ft | 395 kts | 359° |
| 2026-05-05 17:27 | 7.06348 | -75.43848 | 28580 ft | 398 kts | 359° |
| 2026-05-05 17:27 | 7.09158 | -75.43916 | 28987 ft | 400 kts | 359° |
| 2026-05-05 17:27 | 7.11948 | -75.43981 | 29327 ft | 404 kts | 359° |
| 2026-05-05 17:28 | 7.14778 | -75.44048 | 29773 ft | 405 kts | 359° |
| 2026-05-05 17:28 | 7.17631 | -75.44115 | 30116 ft | 408 kts | 359° |
| 2026-05-05 17:28 | 7.20391 | -75.44180 | 30455 ft | 411 kts | 359° |
| 2026-05-05 17:28 | 7.23377 | -75.44250 | 30850 ft | 413 kts | 359° |
| 2026-05-05 17:29 | 7.26289 | -75.44318 | 31192 ft | 416 kts | 359° |
| 2026-05-05 17:29 | 7.29206 | -75.44388 | 31525 ft | 419 kts | 359° |
| 2026-05-05 17:29 | 7.32151 | -75.44457 | 31920 ft | 419 kts | 359° |
| 2026-05-05 17:29 | 7.35068 | -75.44527 | 32222 ft | 422 kts | 359° |
| 2026-05-05 17:30 | 7.38021 | -75.44597 | 32526 ft | 425 kts | 359° |
| 2026-05-05 17:30 | 7.41007 | -75.44668 | 32814 ft | 428 kts | 359° |
| 2026-05-05 17:30 | 7.43989 | -75.44740 | 33207 ft | 429 kts | 359° |
| 2026-05-05 17:30 | 7.47016 | -75.44812 | 33506 ft | 432 kts | 359° |
| 2026-05-05 17:31 | 7.50057 | -75.44885 | 33845 ft | 434 kts | 359° |
| 2026-05-05 17:31 | 7.53109 | -75.44961 | 34163 ft | 436 kts | 359° |
| 2026-05-05 17:31 | 7.56134 | -75.45036 | 34508 ft | 438 kts | 359° |
| 2026-05-05 17:31 | 7.59230 | -75.45110 | 34815 ft | 440 kts | 359° |
| 2026-05-05 17:32 | 7.62277 | -75.45184 | 35228 ft | 439 kts | 359° |
| 2026-05-05 17:32 | 7.65340 | -75.45259 | 35639 ft | 439 kts | 359° |
| 2026-05-05 17:32 | 7.68409 | -75.45334 | 35927 ft | 440 kts | 359° |
| 2026-05-05 17:33 | 7.74585 | -75.45484 | 35913 ft | 436 kts | 359° |
| 2026-05-05 17:33 | 7.80702 | -75.45630 | 35916 ft | 436 kts | 359° |
| 2026-05-05 17:34 | 7.86843 | -75.45776 | 35897 ft | 437 kts | 359° |
| 2026-05-05 17:34 | 7.92978 | -75.45901 | 35879 ft | 436 kts | 359° |
| 2026-05-05 17:35 | 7.99054 | -75.46020 | 35876 ft | 436 kts | 359° |
| 2026-05-05 17:35 | 8.05184 | -75.46140 | 35875 ft | 436 kts | 359° |
| 2026-05-05 17:36 | 8.11272 | -75.46268 | 35881 ft | 436 kts | 359° |
| 2026-05-05 17:36 | 8.17372 | -75.46394 | 35873 ft | 435 kts | 359° |
| 2026-05-05 17:37 | 8.23495 | -75.46518 | 35868 ft | 436 kts | 359° |
| 2026-05-05 17:37 | 8.29602 | -75.46644 | 35869 ft | 436 kts | 359° |
| 2026-05-05 17:38 | 8.35689 | -75.46768 | 35863 ft | 437 kts | 359° |
| 2026-05-05 17:38 | 8.41783 | -75.46893 | 35859 ft | 436 kts | 359° |
| 2026-05-05 17:39 | 8.47885 | -75.47019 | 35859 ft | 437 kts | 359° |
| 2026-05-05 17:39 | 8.53966 | -75.47145 | 35860 ft | 436 kts | 359° |
| 2026-05-05 17:40 | 8.60043 | -75.47271 | 35858 ft | 436 kts | 359° |
| 2026-05-05 17:40 | 8.66161 | -75.47398 | 35864 ft | 436 kts | 359° |
| 2026-05-05 17:41 | 8.72250 | -75.47523 | 35863 ft | 436 kts | 359° |
| 2026-05-05 17:41 | 8.78350 | -75.47649 | 35864 ft | 437 kts | 359° |
| 2026-05-05 17:42 | 8.84473 | -75.47776 | 35862 ft | 436 kts | 359° |
| 2026-05-05 17:42 | 8.90558 | -75.47901 | 35850 ft | 437 kts | 359° |
| 2026-05-05 17:43 | 8.96652 | -75.48027 | 35845 ft | 436 kts | 359° |
| 2026-05-05 17:43 | 9.02745 | -75.48154 | 35837 ft | 437 kts | 359° |
| 2026-05-05 17:44 | 9.08831 | -75.48280 | 35838 ft | 436 kts | 359° |
| 2026-05-05 17:44 | 9.14940 | -75.48408 | 35854 ft | 436 kts | 359° |
| 2026-05-05 17:45 | 9.21040 | -75.48540 | 35868 ft | 437 kts | 359° |
| 2026-05-05 17:45 | 9.27134 | -75.48670 | 35870 ft | 435 kts | 359° |
| 2026-05-05 17:46 | 9.33215 | -75.48798 | 35872 ft | 436 kts | 359° |
| 2026-05-05 17:46 | 9.39315 | -75.48925 | 35869 ft | 436 kts | 359° |
| 2026-05-05 17:47 | 9.45395 | -75.49053 | 35862 ft | 436 kts | 359° |
| 2026-05-05 17:47 | 9.51485 | -75.49187 | 35858 ft | 436 kts | 359° |
| 2026-05-05 17:48 | 9.57582 | -75.49316 | 35858 ft | 436 kts | 359° |
| 2026-05-05 17:48 | 9.63666 | -75.49440 | 35852 ft | 434 kts | 359° |
| 2026-05-05 17:49 | 9.69717 | -75.49560 | 35853 ft | 434 kts | 359° |
| 2026-05-05 17:49 | 9.75807 | -75.49688 | 35850 ft | 435 kts | 358° |
| 2026-05-05 17:50 | 9.81882 | -75.49813 | 35853 ft | 434 kts | 358° |
| 2026-05-05 17:50 | 9.87954 | -75.49940 | 35844 ft | 436 kts | 358° |
| 2026-05-05 17:51 | 9.94037 | -75.50068 | 35837 ft | 436 kts | 358° |
| 2026-05-05 17:51 | 10.00148 | -75.50195 | 35838 ft | 436 kts | 358° |
| 2026-05-05 17:52 | 10.06239 | -75.50323 | 35840 ft | 434 kts | 358° |
| 2026-05-05 17:52 | 10.12308 | -75.50449 | 35840 ft | 435 kts | 358° |
| 2026-05-05 17:53 | 10.18440 | -75.50625 | 35845 ft | 434 kts | 356° |
| 2026-05-05 17:53 | 10.24427 | -75.51506 | 35846 ft | 433 kts | 346° |
| 2026-05-05 17:54 | 10.30275 | -75.53124 | 35852 ft | 435 kts | 343° |
| 2026-05-05 17:54 | 10.36086 | -75.54884 | 35852 ft | 433 kts | 343° |
| 2026-05-05 17:55 | 10.41872 | -75.56606 | 35856 ft | 434 kts | 343° |
| 2026-05-05 17:55 | 10.47699 | -75.58305 | 35854 ft | 432 kts | 343° |
| 2026-05-05 17:56 | 10.53496 | -75.59983 | 35855 ft | 432 kts | 343° |
| 2026-05-05 17:56 | 10.59328 | -75.61663 | 35851 ft | 433 kts | 343° |
| 2026-05-05 17:57 | 10.65177 | -75.63342 | 35851 ft | 433 kts | 343° |
| 2026-05-05 17:57 | 10.70977 | -75.65009 | 35853 ft | 432 kts | 343° |
| 2026-05-05 17:58 | 10.76803 | -75.66682 | 35851 ft | 433 kts | 343° |
| 2026-05-05 17:58 | 10.82623 | -75.68354 | 35849 ft | 432 kts | 343° |
| 2026-05-05 17:59 | 10.88441 | -75.70026 | 35852 ft | 432 kts | 343° |
| 2026-05-05 17:59 | 10.94264 | -75.71703 | 35856 ft | 432 kts | 343° |
| 2026-05-05 18:00 | 11.00046 | -75.73370 | 35858 ft | 432 kts | 343° |
| 2026-05-05 18:00 | 11.05855 | -75.75039 | 35856 ft | 431 kts | 343° |
| 2026-05-05 18:01 | 11.11680 | -75.76663 | 35848 ft | 431 kts | 344° |
| 2026-05-05 18:01 | 11.17487 | -75.78265 | 35848 ft | 431 kts | 344° |
| 2026-05-05 18:02 | 11.23307 | -75.79874 | 35854 ft | 429 kts | 344° |
| 2026-05-05 18:02 | 11.29068 | -75.81472 | 35862 ft | 429 kts | 343° |
| 2026-05-05 18:03 | 11.34864 | -75.83082 | 35874 ft | 431 kts | 343° |
| 2026-05-05 18:03 | 11.40672 | -75.84697 | 35882 ft | 430 kts | 343° |
| 2026-05-05 18:04 | 11.46444 | -75.86302 | 35881 ft | 429 kts | 343° |
| 2026-05-05 18:04 | 11.52212 | -75.87909 | 35888 ft | 428 kts | 343° |
| 2026-05-05 18:05 | 11.57959 | -75.89511 | 35887 ft | 428 kts | 343° |
| 2026-05-05 18:05 | 11.63734 | -75.91120 | 35886 ft | 428 kts | 343° |
| 2026-05-05 18:06 | 11.69482 | -75.92725 | 35890 ft | 428 kts | 343° |
| 2026-05-05 18:06 | 11.75256 | -75.94339 | 35888 ft | 427 kts | 343° |
| 2026-05-05 18:07 | 11.80972 | -75.95942 | 35884 ft | 426 kts | 343° |
| 2026-05-05 18:07 | 11.86686 | -75.97565 | 35881 ft | 426 kts | 343° |
| 2026-05-05 18:08 | 11.92433 | -75.99203 | 35881 ft | 425 kts | 343° |
| 2026-05-05 18:08 | 11.98173 | -76.00840 | 35883 ft | 425 kts | 343° |
| 2026-05-05 18:09 | 12.03855 | -76.02460 | 35885 ft | 425 kts | 343° |
| 2026-05-05 18:09 | 12.09593 | -76.04096 | 35888 ft | 425 kts | 343° |
| 2026-05-05 18:10 | 12.15318 | -76.05727 | 35888 ft | 424 kts | 343° |
| 2026-05-05 18:10 | 12.21011 | -76.07350 | 35888 ft | 424 kts | 343° |
| 2026-05-05 18:11 | 12.26714 | -76.08978 | 35893 ft | 424 kts | 343° |
| 2026-05-05 18:11 | 12.32420 | -76.10608 | 35893 ft | 425 kts | 343° |
| 2026-05-05 18:12 | 12.38147 | -76.12247 | 35895 ft | 425 kts | 343° |
| 2026-05-05 18:12 | 12.43854 | -76.13882 | 35896 ft | 424 kts | 343° |
| 2026-05-05 18:13 | 12.49532 | -76.15507 | 35899 ft | 424 kts | 343° |
| 2026-05-05 18:13 | 12.55261 | -76.17152 | 35899 ft | 423 kts | 343° |
| 2026-05-05 18:14 | 12.60927 | -76.18780 | 35903 ft | 425 kts | 343° |
| 2026-05-05 18:14 | 12.66647 | -76.20422 | 35909 ft | 424 kts | 342° |
| 2026-05-05 18:15 | 12.72324 | -76.22047 | 35920 ft | 425 kts | 343° |
| 2026-05-05 18:15 | 12.78058 | -76.23691 | 35923 ft | 425 kts | 342° |
| 2026-05-05 18:16 | 12.83740 | -76.25322 | 35923 ft | 424 kts | 342° |
| 2026-05-05 18:16 | 12.89429 | -76.26958 | 35923 ft | 424 kts | 342° |
| 2026-05-05 18:17 | 12.94425 | -76.28392 | 35923 ft | 424 kts | 342° |
| 2026-05-05 18:17 | 12.97247 | -76.29203 | 35922 ft | 424 kts | 342° |
| 2026-05-05 18:18 | 13.06196 | -76.31777 | 35926 ft | 425 kts | 342° |
| 2026-05-05 18:18 | 13.11780 | -76.33384 | 35928 ft | 424 kts | 342° |
| 2026-05-05 18:19 | 13.22853 | -76.36572 | 35924 ft | 423 kts | 342° |
| 2026-05-05 18:20 | 13.28540 | -76.38215 | 35918 ft | 423 kts | 342° |
| 2026-05-05 18:20 | 13.34246 | -76.39864 | 35920 ft | 424 kts | 342° |
| 2026-05-05 18:21 | 13.39939 | -76.41509 | 35920 ft | 424 kts | 342° |
| 2026-05-05 18:21 | 13.45637 | -76.43152 | 35923 ft | 424 kts | 342° |
| 2026-05-05 18:22 | 13.51322 | -76.44791 | 35925 ft | 424 kts | 342° |
| 2026-05-05 18:22 | 13.57016 | -76.46440 | 35925 ft | 423 kts | 342° |
| 2026-05-05 18:23 | 13.62698 | -76.48080 | 35929 ft | 424 kts | 342° |
| 2026-05-05 18:23 | 13.68393 | -76.49726 | 35927 ft | 423 kts | 342° |
| 2026-05-05 18:24 | 13.74137 | -76.51391 | 35923 ft | 424 kts | 342° |
| 2026-05-05 18:24 | 13.79854 | -76.53046 | 35921 ft | 423 kts | 342° |
| 2026-05-05 18:25 | 13.85535 | -76.54691 | 35922 ft | 423 kts | 342° |
| 2026-05-05 18:25 | 13.91220 | -76.56337 | 35923 ft | 423 kts | 342° |
| 2026-05-05 18:26 | 13.96901 | -76.57988 | 35928 ft | 424 kts | 342° |
| 2026-05-05 18:26 | 14.02607 | -76.59647 | 35926 ft | 423 kts | 342° |
| 2026-05-05 18:27 | 14.08286 | -76.61295 | 35928 ft | 423 kts | 342° |
| 2026-05-05 18:27 | 14.13989 | -76.62947 | 35928 ft | 423 kts | 342° |
| 2026-05-05 18:28 | 14.22525 | -76.65428 | 35933 ft | 423 kts | 342° |
| 2026-05-05 18:28 | 14.28196 | -76.67077 | 35930 ft | 422 kts | 342° |
| 2026-05-05 18:29 | 14.33888 | -76.68733 | 35932 ft | 421 kts | 342° |
| 2026-05-05 18:29 | 14.39552 | -76.70382 | 35936 ft | 422 kts | 342° |
| 2026-05-05 18:30 | 14.45237 | -76.72037 | 35938 ft | 422 kts | 341° |
| 2026-05-05 18:30 | 14.50906 | -76.73692 | 35940 ft | 421 kts | 341° |
| 2026-05-05 18:31 | 14.56552 | -76.75340 | 35939 ft | 421 kts | 341° |
| 2026-05-05 18:31 | 14.62193 | -76.76985 | 35939 ft | 421 kts | 342° |
| 2026-05-05 18:32 | 14.67827 | -76.78628 | 35940 ft | 419 kts | 342° |
| 2026-05-05 18:32 | 14.73462 | -76.80275 | 35941 ft | 420 kts | 342° |
| 2026-05-05 18:33 | 14.79093 | -76.81919 | 35942 ft | 419 kts | 341° |
| 2026-05-05 18:33 | 14.84730 | -76.83564 | 35944 ft | 419 kts | 342° |
| 2026-05-05 18:34 | 14.90380 | -76.85216 | 35946 ft | 418 kts | 342° |
| 2026-05-05 18:34 | 14.96020 | -76.86865 | 35947 ft | 418 kts | 342° |
| 2026-05-05 18:35 | 15.01543 | -76.88453 | 35945 ft | 418 kts | 343° |
| 2026-05-05 18:35 | 15.07282 | -76.89829 | 35949 ft | 419 kts | 345° |
| 2026-05-05 18:36 | 15.12991 | -76.91097 | 35950 ft | 419 kts | 345° |
| 2026-05-05 18:36 | 15.18755 | -76.92394 | 35949 ft | 419 kts | 345° |
| 2026-05-05 18:37 | 15.24475 | -76.93699 | 35952 ft | 418 kts | 345° |
| 2026-05-05 18:37 | 15.30185 | -76.95011 | 35952 ft | 417 kts | 345° |
| 2026-05-05 18:38 | 15.35870 | -76.96323 | 35957 ft | 415 kts | 345° |
| 2026-05-05 18:38 | 15.41482 | -76.97620 | 35954 ft | 416 kts | 345° |
| 2026-05-05 18:39 | 15.47249 | -76.98957 | 35957 ft | 417 kts | 345° |
| 2026-05-05 18:39 | 15.52925 | -77.00271 | 35957 ft | 415 kts | 345° |
| 2026-05-05 18:40 | 15.58607 | -77.01590 | 35960 ft | 415 kts | 345° |
| 2026-05-05 18:40 | 15.64252 | -77.02902 | 35964 ft | 413 kts | 345° |
| 2026-05-05 18:41 | 15.69869 | -77.04204 | 35968 ft | 414 kts | 345° |
| 2026-05-05 18:41 | 15.75532 | -77.05517 | 35967 ft | 415 kts | 345° |
| 2026-05-05 18:42 | 15.81170 | -77.06831 | 35967 ft | 414 kts | 345° |
| 2026-05-05 18:42 | 15.86779 | -77.08137 | 35967 ft | 413 kts | 345° |
| 2026-05-05 18:43 | 15.92443 | -77.09457 | 35966 ft | 414 kts | 345° |
| 2026-05-05 18:43 | 15.98029 | -77.10754 | 35969 ft | 411 kts | 345° |
| 2026-05-05 18:44 | 16.03655 | -77.12061 | 35966 ft | 412 kts | 345° |
| 2026-05-05 18:44 | 16.09290 | -77.13377 | 35970 ft | 412 kts | 345° |
| 2026-05-05 18:45 | 16.14897 | -77.14687 | 35969 ft | 413 kts | 345° |
| 2026-05-05 18:45 | 16.20547 | -77.16003 | 35970 ft | 413 kts | 345° |
| 2026-05-05 18:46 | 16.26168 | -77.17312 | 35970 ft | 412 kts | 345° |
| 2026-05-05 18:46 | 16.31808 | -77.18628 | 35973 ft | 411 kts | 345° |
| 2026-05-05 18:47 | 16.37402 | -77.19935 | 35976 ft | 411 kts | 345° |
| 2026-05-05 18:47 | 16.43023 | -77.21247 | 35978 ft | 410 kts | 345° |
| 2026-05-05 18:48 | 16.48627 | -77.22559 | 35977 ft | 411 kts | 345° |
| 2026-05-05 18:48 | 16.54217 | -77.23873 | 35979 ft | 410 kts | 345° |
| 2026-05-05 18:49 | 16.59811 | -77.25186 | 35977 ft | 410 kts | 345° |
| 2026-05-05 18:49 | 16.65393 | -77.26495 | 35976 ft | 409 kts | 345° |
| 2026-05-05 18:50 | 16.70941 | -77.27798 | 35981 ft | 410 kts | 345° |
| 2026-05-05 18:50 | 16.76569 | -77.29120 | 35980 ft | 408 kts | 345° |
| 2026-05-05 18:51 | 16.82133 | -77.30425 | 35982 ft | 408 kts | 345° |
| 2026-05-05 18:51 | 16.87730 | -77.31741 | 35985 ft | 408 kts | 345° |
| 2026-05-05 18:52 | 16.93276 | -77.33046 | 35984 ft | 407 kts | 345° |
| 2026-05-05 18:52 | 16.98856 | -77.34358 | 35982 ft | 408 kts | 345° |
| 2026-05-05 18:53 | 17.04441 | -77.35675 | 35980 ft | 408 kts | 345° |
| 2026-05-05 18:53 | 17.10021 | -77.36991 | 35972 ft | 407 kts | 345° |
| 2026-05-05 18:54 | 17.15551 | -77.38296 | 35973 ft | 408 kts | 345° |
| 2026-05-05 18:54 | 17.21121 | -77.39608 | 35973 ft | 406 kts | 345° |
| 2026-05-05 18:55 | 17.26700 | -77.40926 | 35970 ft | 407 kts | 345° |
| 2026-05-05 18:55 | 17.32270 | -77.42245 | 35970 ft | 408 kts | 345° |
| 2026-05-05 18:56 | 17.37845 | -77.43565 | 35973 ft | 407 kts | 345° |
| 2026-05-05 18:56 | 17.42632 | -77.44698 | 35972 ft | 406 kts | 345° |
| 2026-05-05 18:57 | 17.47773 | -77.45912 | 35973 ft | 407 kts | 346° |
| 2026-05-05 18:57 | 17.54654 | -77.47537 | 35976 ft | 408 kts | 345° |
| 2026-05-05 18:58 | 17.60219 | -77.48856 | 35978 ft | 406 kts | 345° |
| 2026-05-05 18:58 | 17.65789 | -77.50179 | 35975 ft | 408 kts | 345° |
| 2026-05-05 18:59 | 17.70393 | -77.51273 | 35975 ft | 407 kts | 345° |
| 2026-05-05 18:59 | 17.76877 | -77.52814 | 35978 ft | 406 kts | 345° |
| 2026-05-05 19:00 | 17.82415 | -77.54131 | 35997 ft | 406 kts | 345° |
| 2026-05-05 19:00 | 17.87952 | -77.55450 | 36011 ft | 408 kts | 345° |
| 2026-05-05 19:01 | 17.93520 | -77.56776 | 36027 ft | 406 kts | 345° |
| 2026-05-05 19:01 | 17.99062 | -77.58098 | 36034 ft | 405 kts | 345° |
| 2026-05-05 19:02 | 18.04623 | -77.59420 | 36045 ft | 403 kts | 345° |
| 2026-05-05 19:02 | 18.10127 | -77.60730 | 36048 ft | 404 kts | 345° |
| 2026-05-05 19:03 | 18.15632 | -77.62040 | 36049 ft | 404 kts | 345° |
| 2026-05-05 19:03 | 18.21194 | -77.63363 | 36055 ft | 403 kts | 345° |
| 2026-05-05 19:04 | 18.25792 | -77.64461 | 36057 ft | 403 kts | 345° |
| 2026-05-05 19:04 | 18.32219 | -77.66001 | 36040 ft | 402 kts | 345° |
| 2026-05-05 19:05 | 18.37679 | -77.67307 | 36028 ft | 401 kts | 345° |
| 2026-05-05 19:05 | 18.43166 | -77.68617 | 36015 ft | 400 kts | 345° |
| 2026-05-05 19:06 | 18.47727 | -77.69710 | 36010 ft | 401 kts | 345° |
| 2026-05-05 19:06 | 18.54099 | -77.71240 | 36000 ft | 400 kts | 345° |
| 2026-05-05 19:07 | 18.58635 | -77.72324 | 36000 ft | 401 kts | 345° |
| 2026-05-05 19:07 | 18.64950 | -77.73837 | 35998 ft | 398 kts | 345° |
| 2026-05-05 19:08 | 18.70404 | -77.75149 | 35993 ft | 400 kts | 345° |
| 2026-05-05 19:08 | 18.75823 | -77.76451 | 35989 ft | 399 kts | 345° |
| 2026-05-05 19:09 | 18.81266 | -77.77763 | 35989 ft | 399 kts | 345° |
| 2026-05-05 19:09 | 18.86708 | -77.79071 | 35988 ft | 397 kts | 345° |
| 2026-05-05 19:10 | 18.92141 | -77.80376 | 35990 ft | 397 kts | 345° |
| 2026-05-05 19:10 | 18.97562 | -77.81682 | 35991 ft | 395 kts | 345° |
| 2026-05-05 19:11 | 19.02920 | -77.82977 | 35987 ft | 396 kts | 345° |
| 2026-05-05 19:11 | 19.08349 | -77.84288 | 35991 ft | 396 kts | 346° |
| 2026-05-05 19:12 | 19.13788 | -77.85599 | 35992 ft | 397 kts | 346° |
| 2026-05-05 19:12 | 19.18449 | -77.86723 | 35993 ft | 396 kts | 345° |